sensor_id;sensor_type;location;lat;lon;timestamp;pressure;altitude;pressure_sealevel;temperature;humidity
6387;BME280;3226;42.162;24.756;2022-09-21T00:01:14;99742.50;;;13.70;nan
6387;BME280;3226;42.162;24.756;2022-09-21T00:03:43;99733.41;;;13.65;nan
6387;BME280;3226;42.162;24.756;2022-09-21T00:06:13;99736.72;;;13.67;nan
6387;BME280;3226;42.162;24.756;2022-09-21T00:08:44;99733.41;;;13.65;nan
6387;BME280;3226;42.162;24.756;2022-09-21T00:11:13;99740.19;;;13.57;nan
6387;BME280;3226;42.162;24.756;2022-09-21T00:13:42;99738.66;;;13.65;nan
6387;BME280;3226;42.162;24.756;2022-09-21T00:16:13;99739.25;;;13.49;nan
6387;BME280;3226;42.162;24.756;2022-09-21T00:18:41;99739.53;;;13.36;nan
6387;BME280;3226;42.162;24.756;2022-09-21T00:21:12;99737.63;;;13.28;nan
6387;BME280;3226;42.162;24.756;2022-09-21T00:23:43;99740.75;;;13.41;nan
6387;BME280;3226;42.162;24.756;2022-09-21T00:26:13;99746.47;;;13.27;nan
6387;BME280;3226;42.162;24.756;2022-09-21T00:28:42;99740.22;;;13.38;nan
6387;BME280;3226;42.162;24.756;2022-09-21T00:31:12;99731.06;;;13.42;nan
6387;BME280;3226;42.162;24.756;2022-09-21T00:33:41;99720.75;;;13.21;nan
6387;BME280;3226;42.162;24.756;2022-09-21T00:36:11;99746.47;;;13.37;nan
6387;BME280;3226;42.162;24.756;2022-09-21T00:38:40;99742.88;;;13.48;nan
6387;BME280;3226;42.162;24.756;2022-09-21T00:41:10;99740.63;;;13.53;nan
6387;BME280;3226;42.162;24.756;2022-09-21T00:43:43;99739.09;;;13.50;nan
6387;BME280;3226;42.162;24.756;2022-09-21T00:46:18;99740.91;;;13.50;nan
6387;BME280;3226;42.162;24.756;2022-09-21T00:48:48;99737.16;;;13.52;nan
6387;BME280;3226;42.162;24.756;2022-09-21T00:51:17;99732.44;;;13.56;nan
6387;BME280;3226;42.162;24.756;2022-09-21T00:53:50;99736.16;;;13.63;nan
6387;BME280;3226;42.162;24.756;2022-09-21T00:56:21;99736.72;;;13.67;nan
6387;BME280;3226;42.162;24.756;2022-09-21T00:58:52;99736.53;;;13.68;nan
6387;BME280;3226;42.162;24.756;2022-09-21T01:01:21;99739.19;;;13.68;nan
6387;BME280;3226;42.162;24.756;2022-09-21T01:03:50;99734.53;;;13.52;nan
6387;BME280;3226;42.162;24.756;2022-09-21T01:06:22;99736.91;;;13.36;nan
6387;BME280;3226;42.162;24.756;2022-09-21T01:08:53;99739.25;;;13.39;nan
6387;BME280;3226;42.162;24.756;2022-09-21T01:11:29;99734.88;;;13.20;nan
6387;BME280;3226;42.162;24.756;2022-09-21T01:14:14;99728.53;;;13.02;nan
6387;BME280;3226;42.162;24.756;2022-09-21T01:16:52;99719.97;;;12.91;nan
6387;BME280;3226;42.162;24.756;2022-09-21T01:19:51;99731.06;;;12.94;nan
6387;BME280;3226;42.162;24.756;2022-09-21T01:22:30;99723.16;;;12.84;nan
6387;BME280;3226;42.162;24.756;2022-09-21T01:25:12;99689.97;;;12.73;nan
6387;BME280;3226;42.162;24.756;2022-09-21T01:27:56;99720.25;;;12.87;nan
6387;BME280;3226;42.162;24.756;2022-09-21T01:30:29;99716.09;;;12.85;nan
6387;BME280;3226;42.162;24.756;2022-09-21T01:33:04;99710.31;;;12.71;nan
6387;BME280;3226;42.162;24.756;2022-09-21T01:35:38;99714.88;;;12.69;nan
6387;BME280;3226;42.162;24.756;2022-09-21T01:38:10;99715.28;;;12.65;nan
6387;BME280;3226;42.162;24.756;2022-09-21T01:40:42;99709.06;;;12.76;nan
6387;BME280;3226;42.162;24.756;2022-09-21T01:43:14;99702.56;;;12.80;nan
6387;BME280;3226;42.162;24.756;2022-09-21T01:45:49;99703.69;;;12.67;nan
6387;BME280;3226;42.162;24.756;2022-09-21T01:48:21;99698.56;;;12.66;nan
6387;BME280;3226;42.162;24.756;2022-09-21T01:50:54;99705.75;;;12.73;nan
6387;BME280;3226;42.162;24.756;2022-09-21T01:53:27;99701.88;;;12.78;nan
6387;BME280;3226;42.162;24.756;2022-09-21T01:56:01;99676.31;;;12.50;nan
6387;BME280;3226;42.162;24.756;2022-09-21T01:58:34;99701.19;;;12.66;nan
6387;BME280;3226;42.162;24.756;2022-09-21T02:01:07;99703.69;;;12.57;nan
6387;BME280;3226;42.162;24.756;2022-09-21T02:03:39;99705.34;;;12.58;nan
6387;BME280;3226;42.162;24.756;2022-09-21T02:06:10;99703.41;;;12.51;nan
6387;BME280;3226;42.162;24.756;2022-09-21T02:08:38;99709.22;;;12.74;nan
6387;BME280;3226;42.162;24.756;2022-09-21T02:11:06;99704.78;;;12.65;nan
6387;BME280;3226;42.162;24.756;2022-09-21T02:13:38;99711.41;;;12.79;nan
6387;BME280;3226;42.162;24.756;2022-09-21T02:16:29;99711.00;;;12.73;nan
6387;BME280;3226;42.162;24.756;2022-09-21T02:19:08;99711.84;;;12.54;nan
6387;BME280;3226;42.162;24.756;2022-09-21T02:21:45;99710.31;;;12.81;nan
6387;BME280;3226;42.162;24.756;2022-09-21T02:24:23;99708.50;;;12.82;nan
6387;BME280;3226;42.162;24.756;2022-09-21T02:27:00;99711.25;;;12.90;nan
6387;BME280;3226;42.162;24.756;2022-09-21T02:29:36;99694.13;;;12.76;nan
6387;BME280;3226;42.162;24.756;2022-09-21T02:32:15;99718.19;;;12.91;nan
6387;BME280;3226;42.162;24.756;2022-09-21T02:34:49;99721.22;;;12.96;nan
6387;BME280;3226;42.162;24.756;2022-09-21T02:37:23;99714.28;;;13.05;nan
6387;BME280;3226;42.162;24.756;2022-09-21T02:39:59;99711.41;;;12.98;nan
6387;BME280;3226;42.162;24.756;2022-09-21T02:42:32;99717.91;;;12.94;nan
6387;BME280;3226;42.162;24.756;2022-09-21T02:45:05;99709.88;;;12.96;nan
6387;BME280;3226;42.162;24.756;2022-09-21T02:47:38;99711.97;;;12.92;nan
6387;BME280;3226;42.162;24.756;2022-09-21T02:50:13;99716.66;;;12.98;nan
6387;BME280;3226;42.162;24.756;2022-09-21T02:52:43;99720.09;;;12.99;nan
6387;BME280;3226;42.162;24.756;2022-09-21T02:55:12;99722.31;;;13.04;nan
6387;BME280;3226;42.162;24.756;2022-09-21T02:57:42;99718.31;;;12.90;nan
6387;BME280;3226;42.162;24.756;2022-09-21T03:00:11;99724.13;;;12.93;nan
6387;BME280;3226;42.162;24.756;2022-09-21T03:02:42;99702.16;;;12.84;nan
6387;BME280;3226;42.162;24.756;2022-09-21T03:05:13;99721.38;;;12.65;nan
6387;BME280;3226;42.162;24.756;2022-09-21T03:07:41;99712.69;;;12.45;nan
6387;BME280;3226;42.162;24.756;2022-09-21T03:10:09;99718.63;;;12.47;nan
6387;BME280;3226;42.162;24.756;2022-09-21T03:12:37;99719.72;;;12.44;nan
6387;BME280;3226;42.162;24.756;2022-09-21T03:15:06;99697.19;;;12.32;nan
6387;BME280;3226;42.162;24.756;2022-09-21T03:17:34;99730.22;;;12.25;nan
6387;BME280;3226;42.162;24.756;2022-09-21T03:20:05;99728.53;;;12.24;nan
6387;BME280;3226;42.162;24.756;2022-09-21T03:22:33;99723.00;;;12.17;nan
6387;BME280;3226;42.162;24.756;2022-09-21T03:25:01;99728.78;;;12.11;nan
6387;BME280;3226;42.162;24.756;2022-09-21T03:27:30;99722.69;;;12.10;nan
6387;BME280;3226;42.162;24.756;2022-09-21T03:29:58;99726.84;;;12.03;nan
6387;BME280;3226;42.162;24.756;2022-09-21T03:32:28;99723.81;;;12.08;nan
6387;BME280;3226;42.162;24.756;2022-09-21T03:34:56;99740.16;;;12.31;nan
6387;BME280;3226;42.162;24.756;2022-09-21T03:37:25;99741.28;;;12.38;nan
6387;BME280;3226;42.162;24.756;2022-09-21T03:39:53;99717.72;;;12.07;nan
6387;BME280;3226;42.162;24.756;2022-09-21T03:42:21;99737.91;;;12.17;nan
6387;BME280;3226;42.162;24.756;2022-09-21T03:44:49;99702.69;;;11.78;nan
6387;BME280;3226;42.162;24.756;2022-09-21T03:47:17;99744.50;;;12.01;nan
6387;BME280;3226;42.162;24.756;2022-09-21T03:49:46;99736.63;;;12.01;nan
6387;BME280;3226;42.162;24.756;2022-09-21T03:52:14;99739.47;;;11.88;nan
6387;BME280;3226;42.162;24.756;2022-09-21T03:54:43;99733.94;;;11.91;nan
6387;BME280;3226;42.162;24.756;2022-09-21T03:57:12;99735.59;;;11.92;nan
6387;BME280;3226;42.162;24.756;2022-09-21T03:59:40;99744.31;;;11.93;nan
6387;BME280;3226;42.162;24.756;2022-09-21T04:02:09;99744.59;;;11.90;nan
6387;BME280;3226;42.162;24.756;2022-09-21T04:04:37;99745.03;;;11.95;nan
6387;BME280;3226;42.162;24.756;2022-09-21T04:07:05;99741.28;;;11.88;nan
6387;BME280;3226;42.162;24.756;2022-09-21T04:09:33;99704.06;;;11.73;nan
6387;BME280;3226;42.162;24.756;2022-09-21T04:12:03;99748.06;;;12.00;nan
6387;BME280;3226;42.162;24.756;2022-09-21T04:14:31;99748.94;;;12.10;nan
6387;BME280;3226;42.162;24.756;2022-09-21T04:16:59;99754.03;;;12.02;nan
6387;BME280;3226;42.162;24.756;2022-09-21T04:19:27;99753.66;;;12.17;nan
6387;BME280;3226;42.162;24.756;2022-09-21T04:21:55;99760.34;;;12.40;nan
6387;BME280;3226;42.162;24.756;2022-09-21T04:24:24;99755.22;;;12.29;nan
6387;BME280;3226;42.162;24.756;2022-09-21T04:26:52;99751.72;;;12.19;nan
6387;BME280;3226;42.162;24.756;2022-09-21T04:29:22;99755.31;;;12.08;nan
6387;BME280;3226;42.162;24.756;2022-09-21T04:31:50;99748.34;;;11.97;nan
6387;BME280;3226;42.162;24.756;2022-09-21T04:34:18;99751.84;;;12.07;nan
6387;BME280;3226;42.162;24.756;2022-09-21T04:36:46;99752.28;;;12.12;nan
6387;BME280;3226;42.162;24.756;2022-09-21T04:39:14;99749.91;;;12.09;nan
6387;BME280;3226;42.162;24.756;2022-09-21T04:41:42;99646.66;;;11.38;nan
6387;BME280;3226;42.162;24.756;2022-09-21T04:44:11;99767.16;;;12.02;nan
6387;BME280;3226;42.162;24.756;2022-09-21T04:46:41;99758.91;;;12.17;nan
6387;BME280;3226;42.162;24.756;2022-09-21T04:49:09;99763.88;;;12.20;nan
6387;BME280;3226;42.162;24.756;2022-09-21T04:51:37;99757.56;;;12.32;nan
6387;BME280;3226;42.162;24.756;2022-09-21T04:54:05;99760.63;;;12.37;nan
6387;BME280;3226;42.162;24.756;2022-09-21T04:56:34;99757.03;;;12.38;nan
6387;BME280;3226;42.162;24.756;2022-09-21T04:59:02;99758.69;;;12.39;nan
6387;BME280;3226;42.162;24.756;2022-09-21T05:01:30;99756.47;;;12.35;nan
6387;BME280;3226;42.162;24.756;2022-09-21T05:04:00;99759.22;;;12.33;nan
6387;BME280;3226;42.162;24.756;2022-09-21T05:06:28;99760.31;;;12.31;nan
6387;BME280;3226;42.162;24.756;2022-09-21T05:08:57;99764.34;;;12.25;nan
6387;BME280;3226;42.162;24.756;2022-09-21T05:11:42;99760.91;;;12.34;nan
6387;BME280;3226;42.162;24.756;2022-09-21T05:14:10;99763.53;;;12.34;nan
6387;BME280;3226;42.162;24.756;2022-09-21T05:16:38;99761.72;;;12.44;nan
6387;BME280;3226;42.162;24.756;2022-09-21T05:19:08;99757.03;;;12.38;nan
6387;BME280;3226;42.162;24.756;2022-09-21T05:21:36;99758.69;;;12.39;nan
6387;BME280;3226;42.162;24.756;2022-09-21T05:24:04;99758.97;;;12.36;nan
6387;BME280;3226;42.162;24.756;2022-09-21T05:26:33;99755.94;;;12.51;nan
6387;BME280;3226;42.162;24.756;2022-09-21T05:29:01;99752.31;;;12.32;nan
6387;BME280;3226;42.162;24.756;2022-09-21T05:31:35;99756.75;;;12.41;nan
6387;BME280;3226;42.162;24.756;2022-09-21T05:34:15;99753.72;;;12.46;nan
6387;BME280;3226;42.162;24.756;2022-09-21T05:36:52;99755.66;;;12.44;nan
6387;BME280;3226;42.162;24.756;2022-09-21T05:39:24;99751.19;;;12.35;nan
6387;BME280;3226;42.162;24.756;2022-09-21T05:41:53;99753.16;;;12.23;nan
6387;BME280;3226;42.162;24.756;2022-09-21T05:44:21;99748.00;;;12.21;nan
6387;BME280;3226;42.162;24.756;2022-09-21T05:46:54;99750.94;;;12.28;nan
6387;BME280;3226;42.162;24.756;2022-09-21T05:49:33;99758.69;;;12.39;nan
6387;BME280;3226;42.162;24.756;2022-09-21T05:52:10;99745.00;;;12.46;nan
6387;BME280;3226;42.162;24.756;2022-09-21T05:54:51;99745.41;;;12.51;nan
6387;BME280;3226;42.162;24.756;2022-09-21T05:57:30;99749.88;;;12.60;nan
6387;BME280;3226;42.162;24.756;2022-09-21T06:00:08;99737.13;;;12.46;nan
6387;BME280;3226;42.162;24.756;2022-09-21T06:03:06;99759.53;;;12.69;nan
6387;BME280;3226;42.162;24.756;2022-09-21T06:05:44;99763.56;;;12.73;nan
6387;BME280;3226;42.162;24.756;2022-09-21T06:08:12;99770.88;;;12.60;nan
6387;BME280;3226;42.162;24.756;2022-09-21T06:10:41;99767.56;;;12.78;nan
6387;BME280;3226;42.162;24.756;2022-09-21T06:13:09;99766.19;;;12.93;nan
6387;BME280;3226;42.162;24.756;2022-09-21T06:15:37;99766.03;;;13.14;nan
6387;BME280;3226;42.162;24.756;2022-09-21T06:18:06;99765.03;;;13.25;nan
6387;BME280;3226;42.162;24.756;2022-09-21T06:20:35;99768.91;;;13.21;nan
6387;BME280;3226;42.162;24.756;2022-09-21T06:23:06;99740.16;;;13.00;nan
6387;BME280;3226;42.162;24.756;2022-09-21T06:25:34;99775.81;;;13.22;nan
6387;BME280;3226;42.162;24.756;2022-09-21T06:28:03;99750.38;;;13.23;nan
6387;BME280;3226;42.162;24.756;2022-09-21T06:30:32;99765.69;;;13.57;nan
6387;BME280;3226;42.162;24.756;2022-09-21T06:33:01;99769.00;;;13.59;nan
6387;BME280;3226;42.162;24.756;2022-09-21T06:35:31;99763.56;;;13.61;nan
6387;BME280;3226;42.162;24.756;2022-09-21T06:38:01;99765.59;;;13.77;nan
6387;BME280;3226;42.162;24.756;2022-09-21T06:40:31;99757.69;;;13.77;nan
6387;BME280;3226;42.162;24.756;2022-09-21T06:43:01;99766.25;;;13.88;nan
6387;BME280;3226;42.162;24.756;2022-09-21T06:45:30;99767.44;;;14.04;nan
6387;BME280;3226;42.162;24.756;2022-09-21T06:47:58;99774.00;;;14.18;nan
6387;BME280;3226;42.162;24.756;2022-09-21T06:50:26;99751.41;;;14.15;nan
6387;BME280;3226;42.162;24.756;2022-09-21T06:52:54;99772.34;;;14.17;nan
6387;BME280;3226;42.162;24.756;2022-09-21T06:55:22;99775.16;;;14.34;nan
6387;BME280;3226;42.162;24.756;2022-09-21T06:57:52;99777.34;;;14.38;nan
6387;BME280;3226;42.162;24.756;2022-09-21T07:00:22;99780.97;;;14.37;nan
6387;BME280;3226;42.162;24.756;2022-09-21T07:02:50;99781.28;;;14.34;nan
6387;BME280;3226;42.162;24.756;2022-09-21T07:05:18;99780.19;;;14.27;nan
6387;BME280;3226;42.162;24.756;2022-09-21T07:07:46;99779.41;;;14.44;nan
6387;BME280;3226;42.162;24.756;2022-09-21T07:10:19;99777.59;;;14.63;nan
6387;BME280;3226;42.162;24.756;2022-09-21T07:12:47;99786.44;;;14.90;nan
6387;BME280;3226;42.162;24.756;2022-09-21T07:15:18;99778.34;;;15.10;nan
6387;BME280;3226;42.162;24.756;2022-09-21T07:17:47;99778.97;;;15.03;nan
6387;BME280;3226;42.162;24.756;2022-09-21T07:20:18;99769.78;;;14.89;nan
6387;BME280;3226;42.162;24.756;2022-09-21T07:22:46;99771.22;;;14.84;nan
6387;BME280;3226;42.162;24.756;2022-09-21T07:25:14;99779.06;;;14.76;nan
6387;BME280;3226;42.162;24.756;2022-09-21T07:27:42;99774.97;;;14.99;nan
6387;BME280;3226;42.162;24.756;2022-09-21T07:30:11;99780.63;;;15.05;nan
6387;BME280;3226;42.162;24.756;2022-09-21T07:32:40;99778.78;;;15.23;nan
6387;BME280;3226;42.162;24.756;2022-09-21T07:35:08;99779.03;;;15.38;nan
6387;BME280;3226;42.162;24.756;2022-09-21T07:37:37;99778.69;;;15.33;nan
6387;BME280;3226;42.162;24.756;2022-09-21T07:40:06;99779.75;;;15.49;nan
6387;BME280;3226;42.162;24.756;2022-09-21T07:42:35;99776.25;;;15.66;nan
6387;BME280;3226;42.162;24.756;2022-09-21T07:45:04;99775.56;;;15.64;nan
6387;BME280;3226;42.162;24.756;2022-09-21T07:47:32;99770.75;;;15.59;nan
6387;BME280;3226;42.162;24.756;2022-09-21T07:50:01;99772.31;;;15.70;nan
6387;BME280;3226;42.162;24.756;2022-09-21T07:52:29;99774.78;;;15.98;nan
6387;BME280;3226;42.162;24.756;2022-09-21T07:54:57;99769.72;;;16.13;nan
6387;BME280;3226;42.162;24.756;2022-09-21T07:57:26;99762.41;;;16.07;nan
6387;BME280;3226;42.162;24.756;2022-09-21T08:00:13;99768.22;;;16.11;nan
6387;BME280;3226;42.162;24.756;2022-09-21T08:02:41;99767.41;;;16.18;nan
6387;BME280;3226;42.162;24.756;2022-09-21T08:05:14;99773.16;;;16.06;nan
6387;BME280;3226;42.162;24.756;2022-09-21T08:07:42;99749.38;;;16.06;nan
6387;BME280;3226;42.162;24.756;2022-09-21T08:10:10;99763.13;;;16.17;nan
6387;BME280;3226;42.162;24.756;2022-09-21T08:12:39;99765.78;;;16.26;nan
6387;BME280;3226;42.162;24.756;2022-09-21T08:15:08;99751.75;;;16.33;nan
6387;BME280;3226;42.162;24.756;2022-09-21T08:17:56;99741.00;;;16.27;nan
6387;BME280;3226;42.162;24.756;2022-09-21T08:20:26;99735.50;;;16.12;nan
6387;BME280;3226;42.162;24.756;2022-09-21T08:22:54;99720.06;;;16.42;nan
6387;BME280;3226;42.162;24.756;2022-09-21T08:25:23;99730.47;;;16.60;nan
6387;BME280;3226;42.162;24.756;2022-09-21T08:27:51;99735.63;;;16.70;nan
6387;BME280;3226;42.162;24.756;2022-09-21T08:30:23;99724.88;;;16.71;nan
6387;BME280;3226;42.162;24.756;2022-09-21T08:32:53;99733.63;;;16.80;nan
6387;BME280;3226;42.162;24.756;2022-09-21T08:35:22;99733.66;;;17.05;nan
6387;BME280;3226;42.162;24.756;2022-09-21T08:37:53;99723.88;;;17.05;nan
6387;BME280;3226;42.162;24.756;2022-09-21T08:40:21;99723.66;;;17.32;nan
6387;BME280;3226;42.162;24.756;2022-09-21T08:42:56;99713.97;;;17.16;nan
6387;BME280;3226;42.162;24.756;2022-09-21T08:45:29;99723.94;;;17.54;nan
6387;BME280;3226;42.162;24.756;2022-09-21T08:48:01;99719.91;;;17.66;nan
6387;BME280;3226;42.162;24.756;2022-09-21T08:50:33;99714.56;;;17.83;nan
6387;BME280;3226;42.162;24.756;2022-09-21T08:53:09;99713.47;;;18.00;nan
6387;BME280;3226;42.162;24.756;2022-09-21T08:55:39;99715.66;;;18.05;nan
6387;BME280;3226;42.162;24.756;2022-09-21T08:58:19;99709.53;;;17.96;nan
6387;BME280;3226;42.162;24.756;2022-09-21T09:01:02;99704.69;;;18.08;nan
6387;BME280;3226;42.162;24.756;2022-09-21T09:03:42;99702.19;;;18.15;nan
6387;BME280;3226;42.162;24.756;2022-09-21T09:06:20;99705.41;;;17.94;nan
6387;BME280;3226;42.162;24.756;2022-09-21T09:09:20;99697.22;;;18.12;nan
6387;BME280;3226;42.162;24.756;2022-09-21T09:12:00;99689.22;;;18.20;nan
6387;BME280;3226;42.162;24.756;2022-09-21T09:15:06;99694.66;;;18.27;nan
6387;BME280;3226;42.162;24.756;2022-09-21T09:17:47;99675.97;;;17.88;nan
6387;BME280;3226;42.162;24.756;2022-09-21T09:20:19;99681.78;;;18.15;nan
6387;BME280;3226;42.162;24.756;2022-09-21T09:23:03;99683.38;;;17.93;nan
6387;BME280;3226;42.162;24.756;2022-09-21T09:25:36;99679.78;;;17.86;nan
6387;BME280;3226;42.162;24.756;2022-09-21T09:28:23;99677.78;;;17.88;nan
6387;BME280;3226;42.162;24.756;2022-09-21T09:30:57;99669.59;;;18.06;nan
6387;BME280;3226;42.162;24.756;2022-09-21T09:33:31;99681.91;;;18.22;nan
6387;BME280;3226;42.162;24.756;2022-09-21T09:36:08;99676.63;;;18.22;nan
6387;BME280;3226;42.162;24.756;2022-09-21T09:38:44;99672.31;;;18.44;nan
6387;BME280;3226;42.162;24.756;2022-09-21T09:41:26;99665.44;;;19.12;nan
6387;BME280;3226;42.162;24.756;2022-09-21T09:44:07;99668.88;;;18.97;nan
6387;BME280;3226;42.162;24.756;2022-09-21T09:46:43;99664.59;;;19.26;nan
6387;BME280;3226;42.162;24.756;2022-09-21T09:49:27;99652.06;;;19.20;nan
6387;BME280;3226;42.162;24.756;2022-09-21T09:51:58;99670.91;;;19.25;nan
6387;BME280;3226;42.162;24.756;2022-09-21T09:54:27;99673.75;;;19.39;nan
6387;BME280;3226;42.162;24.756;2022-09-21T09:57:02;99671.25;;;19.52;nan
6387;BME280;3226;42.162;24.756;2022-09-21T09:59:34;99662.13;;;19.40;nan
6387;BME280;3226;42.162;24.756;2022-09-21T10:02:04;99668.88;;;19.57;nan
6387;BME280;3226;42.162;24.756;2022-09-21T10:04:32;99649.75;;;19.62;nan
6387;BME280;3226;42.162;24.756;2022-09-21T10:07:01;99621.34;;;19.62;nan
6387;BME280;3226;42.162;24.756;2022-09-21T10:09:30;99642.75;;;19.91;nan
6387;BME280;3226;42.162;24.756;2022-09-21T10:12:02;99638.63;;;20.10;nan
6387;BME280;3226;42.162;24.756;2022-09-21T10:14:47;99635.03;;;19.96;nan
6387;BME280;3226;42.162;24.756;2022-09-21T10:17:17;99619.72;;;19.83;nan
6387;BME280;3226;42.162;24.756;2022-09-21T10:19:46;99634.78;;;19.76;nan
6387;BME280;3226;42.162;24.756;2022-09-21T10:22:16;99631.88;;;19.71;nan
6387;BME280;3226;42.162;24.756;2022-09-21T10:24:48;99624.44;;;19.66;nan
6387;BME280;3226;42.162;24.756;2022-09-21T10:27:23;99629.22;;;19.71;nan
6387;BME280;3226;42.162;24.756;2022-09-21T10:29:52;99628.03;;;19.58;nan
6387;BME280;3226;42.162;24.756;2022-09-21T10:32:23;99613.22;;;19.49;nan
6387;BME280;3226;42.162;24.756;2022-09-21T10:35:16;99623.75;;;19.42;nan
6387;BME280;3226;42.162;24.756;2022-09-21T10:37:47;99624.25;;;19.16;nan
6387;BME280;3226;42.162;24.756;2022-09-21T10:40:24;99619.00;;;19.38;nan
6387;BME280;3226;42.162;24.756;2022-09-21T10:42:56;99625.75;;;19.55;nan
6387;BME280;3226;42.162;24.756;2022-09-21T10:45:26;99611.81;;;19.16;nan
6387;BME280;3226;42.162;24.756;2022-09-21T10:47:56;99614.16;;;18.81;nan
6387;BME280;3226;42.162;24.756;2022-09-21T10:50:28;99613.94;;;18.83;nan
6387;BME280;3226;42.162;24.756;2022-09-21T10:52:59;99617.38;;;19.06;nan
6387;BME280;3226;42.162;24.756;2022-09-21T10:55:29;99607.66;;;19.29;nan
6387;BME280;3226;42.162;24.756;2022-09-21T10:57:59;99619.13;;;19.29;nan
6387;BME280;3226;42.162;24.756;2022-09-21T11:00:39;99614.78;;;19.43;nan
6387;BME280;3226;42.162;24.756;2022-09-21T11:03:32;99606.69;;;19.67;nan
6387;BME280;3226;42.162;24.756;2022-09-21T11:06:08;99602.31;;;19.59;nan
6387;BME280;3226;42.162;24.756;2022-09-21T11:08:42;99598.44;;;19.61;nan
6387;BME280;3226;42.162;24.756;2022-09-21T11:11:41;99594.47;;;19.35;nan
6387;BME280;3226;42.162;24.756;2022-09-21T11:14:19;99606.41;;;19.61;nan
6387;BME280;3226;42.162;24.756;2022-09-21T11:16:56;99596.53;;;19.55;nan
6387;BME280;3226;42.162;24.756;2022-09-21T11:19:32;99608.94;;;19.33;nan
6387;BME280;3226;42.162;24.756;2022-09-21T11:22:07;99602.47;;;19.05;nan
6387;BME280;3226;42.162;24.756;2022-09-21T11:24:44;99606.03;;;19.13;nan
6387;BME280;3226;42.162;24.756;2022-09-21T11:27:23;99599.59;;;18.77;nan
6387;BME280;3226;42.162;24.756;2022-09-21T11:29:59;99602.72;;;18.96;nan
6387;BME280;3226;42.162;24.756;2022-09-21T11:32:38;99594.03;;;19.02;nan
6387;BME280;3226;42.162;24.756;2022-09-21T11:35:29;99591.47;;;19.09;nan
6387;BME280;3226;42.162;24.756;2022-09-21T11:38:07;99484.19;;;18.51;nan
6387;BME280;3226;42.162;24.756;2022-09-21T11:40:49;99594.31;;;18.92;nan
6387;BME280;3226;42.162;24.756;2022-09-21T11:43:34;99574.72;;;18.63;nan
6387;BME280;3226;42.162;24.756;2022-09-21T11:46:16;99587.13;;;18.62;nan
6387;BME280;3226;42.162;24.756;2022-09-21T11:49:01;99576.09;;;18.59;nan
6387;BME280;3226;42.162;24.756;2022-09-21T11:51:45;99580.50;;;19.12;nan
6387;BME280;3226;42.162;24.756;2022-09-21T11:54:33;99572.50;;;19.42;nan
6387;BME280;3226;42.162;24.756;2022-09-21T11:57:09;99582.91;;;19.43;nan
6387;BME280;3226;42.162;24.756;2022-09-21T11:59:58;99580.22;;;19.21;nan
6387;BME280;3226;42.162;24.756;2022-09-21T12:02:44;99573.94;;;19.44;nan
6387;BME280;3226;42.162;24.756;2022-09-21T12:05:23;99576.88;;;19.49;nan
6387;BME280;3226;42.162;24.756;2022-09-21T12:08:18;99581.06;;;19.59;nan
6387;BME280;3226;42.162;24.756;2022-09-21T12:10:55;99580.19;;;19.73;nan
6387;BME280;3226;42.162;24.756;2022-09-21T12:13:32;99577.72;;;19.72;nan
6387;BME280;3226;42.162;24.756;2022-09-21T12:16:09;99569.34;;;19.53;nan
6387;BME280;3226;42.162;24.756;2022-09-21T12:18:45;99577.31;;;19.53;nan
6387;BME280;3226;42.162;24.756;2022-09-21T12:21:20;99571.59;;;19.34;nan
6387;BME280;3226;42.162;24.756;2022-09-21T12:23:51;99579.59;;;19.19;nan
6387;BME280;3226;42.162;24.756;2022-09-21T12:26:26;99576.53;;;18.92;nan
6387;BME280;3226;42.162;24.756;2022-09-21T12:28:59;99573.44;;;18.89;nan
6387;BME280;3226;42.162;24.756;2022-09-21T12:31:38;99554.78;;;18.82;nan
6387;BME280;3226;42.162;24.756;2022-09-21T12:34:14;99566.66;;;18.86;nan
6387;BME280;3226;42.162;24.756;2022-09-21T12:36:49;99570.34;;;19.00;nan
6387;BME280;3226;42.162;24.756;2022-09-21T12:39:25;99567.94;;;18.75;nan
6387;BME280;3226;42.162;24.756;2022-09-21T12:41:59;99541.31;;;18.54;nan
6387;BME280;3226;42.162;24.756;2022-09-21T12:44:34;99560.63;;;18.62;nan
6387;BME280;3226;42.162;24.756;2022-09-21T12:47:21;99562.38;;;18.70;nan
6387;BME280;3226;42.162;24.756;2022-09-21T12:49:57;99564.28;;;18.61;nan
6387;BME280;3226;42.162;24.756;2022-09-21T12:52:27;99557.97;;;18.62;nan
6387;BME280;3226;42.162;24.756;2022-09-21T12:55:03;99562.41;;;19.00;nan
6387;BME280;3226;42.162;24.756;2022-09-21T12:57:45;99564.72;;;19.25;nan
6387;BME280;3226;42.162;24.756;2022-09-21T13:00:39;99561.91;;;19.63;nan
6387;BME280;3226;42.162;24.756;2022-09-21T13:03:14;99551.34;;;19.70;nan
6387;BME280;3226;42.162;24.756;2022-09-21T13:05:55;99559.31;;;19.48;nan
6387;BME280;3226;42.162;24.756;2022-09-21T13:08:29;99565.88;;;19.53;nan
6387;BME280;3226;42.162;24.756;2022-09-21T13:11:04;99562.38;;;19.30;nan
6387;BME280;3226;42.162;24.756;2022-09-21T13:13:36;99565.28;;;19.35;nan
6387;BME280;3226;42.162;24.756;2022-09-21T13:16:05;99559.13;;;19.35;nan
6387;BME280;3226;42.162;24.756;2022-09-21T13:18:36;99554.94;;;19.26;nan
6387;BME280;3226;42.162;24.756;2022-09-21T13:21:18;99563.00;;;18.87;nan
6387;BME280;3226;42.162;24.756;2022-09-21T13:23:51;99542.69;;;18.79;nan
6387;BME280;3226;42.162;24.756;2022-09-21T13:26:31;99559.81;;;18.92;nan
6387;BME280;3226;42.162;24.756;2022-09-21T13:29:26;99552.31;;;19.11;nan
6387;BME280;3226;42.162;24.756;2022-09-21T13:31:56;99554.47;;;19.22;nan
6387;BME280;3226;42.162;24.756;2022-09-21T13:34:30;99556.13;;;19.23;nan
6387;BME280;3226;42.162;24.756;2022-09-21T13:37:34;99550.66;;;18.95;nan
6387;BME280;3226;42.162;24.756;2022-09-21T13:43:20;99540.94;;;19.17;nan
6387;BME280;3226;42.162;24.756;2022-09-21T13:45:54;99525.19;;;19.30;nan
6387;BME280;3226;42.162;24.756;2022-09-21T13:48:26;99538.13;;;19.77;nan
6387;BME280;3226;42.162;24.756;2022-09-21T13:50:58;99538.59;;;19.81;nan
6387;BME280;3226;42.162;24.756;2022-09-21T13:53:34;99542.06;;;20.03;nan
6387;BME280;3226;42.162;24.756;2022-09-21T13:56:08;99545.59;;;20.10;nan
6387;BME280;3226;42.162;24.756;2022-09-21T13:58:44;99539.91;;;19.91;nan
6387;BME280;3226;42.162;24.756;2022-09-21T14:01:18;99538.09;;;19.55;nan
6387;BME280;3226;42.162;24.756;2022-09-21T14:04:17;99480.25;;;19.29;nan
6387;BME280;3226;42.162;24.756;2022-09-21T14:06:48;99545.22;;;19.70;nan
6387;BME280;3226;42.162;24.756;2022-09-21T14:09:22;99543.38;;;19.70;nan